Time;durP1;ratioP1;P1;durP2;ratioP2;P2;SDS_P1;SDS_P2;PMS_P1;PMS_P2;Temp;Humidity;BMP_temperature;BMP_pressure;BME280_temperature;BME280_humidity;BME280_pressure;Samples;Min_cycle;Max_cycle;Signal;HPM_P1;HPM_P2
2022/11/12 00:01:22;;;;;;;24.95;13.82;;;;;;;7.61;100.00;103101.13;2614993;31;20023;-55
2022/11/12 00:03:51;;;;;;;26.42;14.00;;;;;;;7.69;100.00;103109.72;2615529;36;20022;-52
2022/11/12 00:06:21;;;;;;;22.73;14.73;;;;;;;7.59;100.00;103100.28;2615775;31;20424;-55
2022/11/12 00:08:50;;;;;;;23.15;15.35;;;;;;;7.58;100.00;103101.22;2610599;36;20034;-54
2022/11/12 00:11:18;;;;;;;30.30;16.52;;;;;;;7.61;100.00;103106.47;2610444;36;20044;-52
2022/11/12 00:13:46;;;;;;;24.48;14.23;;;;;;;7.60;100.00;103102.03;2611395;36;20054;-54
2022/11/12 00:16:15;;;;;;;25.75;15.10;;;;;;;7.67;100.00;103099.97;2610675;36;20034;-53
2022/11/12 00:18:43;;;;;;;22.55;14.43;;;;;;;7.75;100.00;103095.19;2610671;36;20042;-53
2022/11/12 00:21:11;;;;;;;23.25;14.70;;;;;;;7.72;100.00;103093.50;2610346;36;20034;-54
2022/11/12 00:23:42;;;;;;;22.90;13.77;;;;;;;7.75;100.00;103103.22;2609846;36;20054;-53
2022/11/12 00:26:10;;;;;;;30.98;15.15;;;;;;;7.77;100.00;103100.47;2608062;31;20041;-57
2022/11/12 00:28:38;;;;;;;26.77;15.13;;;;;;;7.76;100.00;103093.38;2606557;36;20038;-56
2022/11/12 00:31:12;;;;;;;22.60;14.43;;;;;;;7.60;100.00;103082.41;2605407;36;20038;-52
2022/11/12 00:33:44;;;;;;;23.63;15.30;;;;;;;7.78;100.00;103094.19;2606981;36;20602;-56
2022/11/12 00:36:13;;;;;;;27.95;16.85;;;;;;;7.89;100.00;103095.50;2606731;31;20038;-49
2022/11/12 00:38:44;;;;;;;25.58;15.68;;;;;;;8.00;100.00;103084.31;2606368;36;20030;-53
2022/11/12 00:41:12;;;;;;;24.95;16.70;;;;;;;8.10;100.00;103091.97;2609344;36;20034;-56
2022/11/12 00:43:41;;;;;;;34.30;17.23;;;;;;;8.00;100.00;103104.91;2608725;31;20041;-54
2022/11/12 00:46:09;;;;;;;29.70;16.20;;;;;;;8.03;100.00;103102.09;2606731;36;20035;-58
2022/11/12 00:48:37;;;;;;;24.88;14.45;;;;;;;7.95;100.00;103101.53;2606553;36;20046;-55
2022/11/12 00:51:07;;;;;;;27.75;16.27;;;;;;;7.95;100.00;103106.88;2607833;31;20022;-59
2022/11/12 00:53:35;;;;;;;27.73;16.65;;;;;;;7.84;100.00;103107.34;2608315;36;20104;-55
2022/11/12 00:56:08;;;;;;;24.25;14.98;;;;;;;7.79;100.00;103107.53;2608275;36;20073;-54
2022/11/12 00:58:37;;;;;;;27.35;16.67;;;;;;;7.93;100.00;103109.63;2607633;36;20038;-55
2022/11/12 01:01:08;;;;;;;27.45;14.85;;;;;;;7.86;100.00;103113.50;2606503;36;21528;-53
2022/11/12 01:03:36;;;;;;;25.10;15.52;;;;;;;7.83;100.00;103108.28;2607659;36;20034;-53
2022/11/12 01:06:05;;;;;;;25.20;15.40;;;;;;;7.79;100.00;103114.69;2607725;36;20761;-55
2022/11/12 01:08:34;;;;;;;28.88;15.43;;;;;;;7.78;100.00;103103.09;2606840;36;20026;-53
2022/11/12 01:11:14;;;;;;;27.10;15.43;;;;;;;7.79;100.00;103112.00;2607369;36;20157;-55
2022/11/12 01:13:45;;;;;;;24.65;16.48;;;;;;;7.83;100.00;103102.91;2608144;36;20631;-56
2022/11/12 01:16:15;;;;;;;26.92;15.77;;;;;;;7.73;100.00;103105.13;2606752;36;20023;-58
2022/11/12 01:18:44;;;;;;;31.30;17.65;;;;;;;7.76;100.00;103104.09;2607785;36;20077;-54
2022/11/12 01:21:13;;;;;;;23.55;15.57;;;;;;;7.82;100.00;103093.13;2609002;36;20046;-53
2022/11/12 01:23:42;;;;;;;23.52;15.30;;;;;;;7.74;100.00;103095.25;2606467;36;20031;-57
2022/11/12 01:26:15;;;;;;;24.25;16.10;;;;;;;7.60;100.00;103091.31;2607975;31;20053;-51
2022/11/12 01:28:45;;;;;;;23.83;15.15;;;;;;;7.55;100.00;103087.94;2606475;36;20382;-52
2022/11/12 01:31:16;;;;;;;26.13;14.00;;;;;;;7.47;100.00;103088.25;2606334;36;20058;-60
2022/11/12 01:33:46;;;;;;;22.83;14.45;;;;;;;7.46;100.00;103091.00;2609164;31;20022;-55
2022/11/12 01:36:15;;;;;;;21.55;13.73;;;;;;;7.26;100.00;103095.34;2608120;31;20041;-51
2022/11/12 01:38:44;;;;;;;;;;;;;;;7.29;100.00;103092.53;2606537;31;20031;-57
2022/11/12 01:41:16;;;;;;;29.52;14.35;;;;;;;7.22;100.00;103093.72;2607774;31;19954;-52
2022/11/12 01:43:45;;;;;;;21.52;13.73;;;;;;;7.22;100.00;103099.06;2608630;36;20041;-56
2022/11/12 01:46:19;;;;;;;28.48;15.55;;;;;;;7.09;100.00;103097.78;2607896;31;21309;-53
2022/11/12 01:48:53;;;;;;;22.83;13.60;;;;;;;7.14;100.00;103093.13;2606734;36;20448;-54
2022/11/12 01:51:22;;;;;;;24.67;13.68;;;;;;;7.12;100.00;103098.53;2607058;36;20045;-54
2022/11/12 01:53:53;;;;;;;;;;;;;;;7.07;100.00;103094.31;2608169;36;20022;-58
2022/11/12 01:56:25;;;;;;;20.20;13.70;;;;;;;6.99;100.00;103102.59;2604999;36;19946;-52
2022/11/12 01:58:58;;;;;;;23.30;12.85;;;;;;;6.94;100.00;103104.59;2605003;36;20030;-52
2022/11/12 02:01:27;;;;;;;24.13;14.38;;;;;;;6.86;100.00;103096.84;2607476;31;20434;-53
2022/11/12 02:03:55;;;;;;;22.02;14.88;;;;;;;6.93;100.00;103097.47;2608688;36;20587;-54
2022/11/12 02:06:25;;;;;;;22.10;13.63;;;;;;;6.94;100.00;103089.41;2605793;36;20467;-53
2022/11/12 02:08:53;;;;;;;22.92;14.30;;;;;;;6.82;100.00;103090.72;2606943;36;20031;-51
2022/11/12 02:11:24;;;;;;;23.80;14.38;;;;;;;6.84;100.00;103088.00;2606707;36;20042;-53
2022/11/12 02:14:00;;;;;;;23.50;13.85;;;;;;;6.90;100.00;103082.41;2607861;36;20057;-53
2022/11/12 02:16:32;;;;;;;23.13;14.65;;;;;;;6.88;100.00;103088.78;2605718;36;20055;-53
2022/11/12 02:19:00;;;;;;;20.58;11.88;;;;;;;6.79;100.00;103090.84;2606829;36;20601;-51
2022/11/12 02:21:32;;;;;;;27.00;14.75;;;;;;;6.78;100.00;103083.72;2606029;36;20049;-53
2022/11/12 02:24:05;;;;;;;22.85;13.73;;;;;;;6.80;100.00;103081.00;2605884;36;20034;-51
2022/11/12 02:26:38;;;;;;;26.20;14.02;;;;;;;6.76;100.00;103072.22;2605539;31;20061;-58
2022/11/12 02:29:06;;;;;;;22.73;13.82;;;;;;;6.76;100.00;103076.72;2606938;36;20058;-52
2022/11/12 02:31:35;;;;;;;20.88;13.35;;;;;;;6.73;100.00;103074.13;2604194;36;20038;-56
2022/11/12 02:34:03;;;;;;;24.08;14.73;;;;;;;6.63;100.00;103074.47;2606977;36;20455;-55
2022/11/12 02:36:34;;;;;;;24.33;14.23;;;;;;;6.68;100.00;103073.44;2605607;36;20061;-55
2022/11/12 02:39:03;;;;;;;23.98;14.85;;;;;;;6.67;100.00;103069.91;2605244;36;20031;-54
2022/11/12 02:41:31;;;;;;;23.77;13.73;;;;;;;6.53;100.00;103072.19;2606340;36;20061;-51
2022/11/12 02:43:59;;;;;;;22.13;12.98;;;;;;;6.55;100.00;103071.22;2607039;36;22211;-50
2022/11/12 02:46:27;;;;;;;20.95;12.52;;;;;;;6.48;100.00;103059.00;2605945;36;20053;-54
2022/11/12 02:48:56;;;;;;;20.98;12.68;;;;;;;6.46;100.00;103066.16;2604087;36;20655;-54
2022/11/12 02:51:24;;;;;;;36.35;14.75;;;;;;;6.48;100.00;103072.34;2609809;36;20037;-55
2022/11/12 02:53:55;;;;;;;24.88;15.18;;;;;;;6.53;100.00;103066.84;2606377;36;20035;-51
2022/11/12 02:56:23;;;;;;;23.58;13.73;;;;;;;6.47;100.00;103063.44;2606672;36;20034;-56
2022/11/12 02:58:51;;;;;;;18.67;13.02;;;;;;;6.42;100.00;103059.19;2605029;36;20068;-53
2022/11/12 03:01:20;;;;;;;21.90;12.80;;;;;;;6.33;100.00;103063.09;2605735;36;20038;-55
2022/11/12 03:03:48;;;;;;;22.60;13.55;;;;;;;6.33;100.00;103055.06;2606424;36;20058;-55
2022/11/12 03:06:16;;;;;;;21.45;13.18;;;;;;;6.31;100.00;103063.09;2607393;36;20541;-55
2022/11/12 03:08:45;;;;;;;20.83;13.07;;;;;;;6.35;100.00;103049.66;2605989;36;20780;-56
2022/11/12 03:11:17;;;;;;;20.52;13.27;;;;;;;6.28;100.00;103051.66;2608006;36;20046;-57
2022/11/12 03:13:46;;;;;;;21.27;13.05;;;;;;;6.29;100.00;103062.31;2606555;36;20022;-54
2022/11/12 03:16:14;;;;;;;19.50;11.98;;;;;;;6.24;100.00;103063.38;2605390;36;20427;-54
2022/11/12 03:18:42;;;;;;;18.85;12.15;;;;;;;6.27;100.00;103064.16;2606477;36;20038;-56
2022/11/12 03:21:11;;;;;;;21.92;13.52;;;;;;;6.26;100.00;103065.09;2607764;36;20030;-54
2022/11/12 03:23:40;;;;;;;22.13;14.10;;;;;;;6.18;100.00;103056.44;2605757;31;20034;-57
2022/11/12 03:26:08;;;;;;;21.30;13.70;;;;;;;6.23;100.00;103050.97;2607051;36;20534;-54
2022/11/12 03:28:39;;;;;;;22.10;14.50;;;;;;;6.24;100.00;103048.22;2606113;36;20022;-53
2022/11/12 03:31:07;;;;;;;24.95;14.07;;;;;;;6.20;100.00;103059.97;2606820;31;20054;-54
2022/11/12 03:33:39;;;;;;;23.50;13.93;;;;;;;6.17;100.00;103065.41;2608308;36;20633;-56
2022/11/12 03:36:08;;;;;;;23.45;14.13;;;;;;;6.08;100.00;103065.72;2607687;36;20450;-52
2022/11/12 03:38:36;;;;;;;21.63;13.55;;;;;;;6.15;100.00;103056.56;2605648;36;20053;-55
2022/11/12 03:41:05;;;;;;;21.63;13.27;;;;;;;6.19;100.00;103063.56;2607298;36;20090;-57
2022/11/12 03:43:33;;;;;;;24.25;14.68;;;;;;;6.15;100.00;103053.88;2607322;36;20034;-56
2022/11/12 03:46:04;;;;;;;21.27;14.10;;;;;;;6.09;100.00;103062.13;2607466;36;20031;-55
2022/11/12 03:48:32;;;;;;;19.70;11.82;;;;;;;6.09;100.00;103062.97;2607387;31;20038;-56
2022/11/12 03:51:01;;;;;;;21.80;12.57;;;;;;;6.12;100.00;103068.25;2607143;36;20566;-55
2022/11/12 03:53:29;;;;;;;24.90;13.55;;;;;;;6.20;100.00;103067.09;2606253;36;20046;-55
2022/11/12 03:55:57;;;;;;;20.20;12.77;;;;;;;6.17;100.00;103068.09;2606507;36;20057;-55
2022/11/12 03:58:26;;;;;;;21.67;13.98;;;;;;;6.13;100.00;103066.44;2607207;36;20435;-58
2022/11/12 04:00:54;;;;;;;19.38;12.50;;;;;;;6.18;100.00;103067.13;2606047;36;20038;-54
2022/11/12 04:03:25;;;;;;;20.67;14.00;;;;;;;6.23;100.00;103065.19;2606014;36;20023;-55
2022/11/12 04:08:40;;;;;;;22.20;14.52;;;;;;;6.36;100.00;103067.44;2608016;36;20137;-53
2022/11/12 04:11:11;;;;;;;24.58;15.18;;;;;;;6.40;100.00;103071.75;2605782;36;20630;-54
2022/11/12 04:13:37;;;;;;;23.75;14.07;;;;;;;6.51;100.00;103074.03;2606972;36;20038;-54
2022/11/12 04:21:53;;;;;;;28.33;16.73;;;;;;;7.00;100.00;103075.78;2606590;36;20022;-57
2022/11/12 04:27:09;;;;;;;31.13;17.77;;;;;;;6.99;100.00;103065.13;2606711;36;20057;-54
2022/11/12 04:32:18;;;;;;;26.90;16.92;;;;;;;6.95;100.00;103066.16;2607790;31;19946;-54
2022/11/12 04:34:49;;;;;;;25.88;15.73;;;;;;;6.87;100.00;103068.28;2609825;36;20023;-54
2022/11/12 04:37:17;;;;;;;22.15;14.63;;;;;;;6.84;100.00;103075.47;2608557;31;20539;-52
2022/11/12 04:39:46;;;;;;;23.10;15.80;;;;;;;6.81;100.00;103072.06;2608790;36;20505;-55
2022/11/12 04:45:02;;;;;;;23.23;14.30;;;;;;;6.64;100.00;103067.31;2606339;36;20613;-53
2022/11/12 04:47:34;;;;;;;23.65;15.23;;;;;;;6.55;100.00;103071.22;2608878;31;20046;-52
2022/11/12 04:50:06;;;;;;;24.55;14.85;;;;;;;6.44;100.00;103068.91;2607154;31;20034;-54
2022/11/12 04:52:35;;;;;;;22.73;14.07;;;;;;;6.36;100.00;103070.09;2607105;31;20528;-53
2022/11/12 04:55:03;;;;;;;24.33;15.55;;;;;;;6.27;100.00;103061.50;2607100;36;20038;-55
2022/11/12 04:57:31;;;;;;;26.90;15.38;;;;;;;6.23;100.00;103059.84;2609009;36;20042;-52
2022/11/12 04:59:59;;;;;;;21.90;14.88;;;;;;;6.21;100.00;103067.03;2607761;36;20025;-56
2022/11/12 05:02:28;;;;;;;24.63;15.05;;;;;;;6.24;100.00;103066.06;2607492;36;20030;-51
2022/11/12 05:04:56;;;;;;;20.90;13.98;;;;;;;6.19;100.00;103066.22;2607099;36;20042;-52
2022/11/12 05:07:27;;;;;;;24.73;15.30;;;;;;;6.13;100.00;103066.44;2606987;36;20030;-51
2022/11/12 05:09:55;;;;;;;22.75;14.43;;;;;;;6.10;100.00;103063.88;2608306;31;20035;-53
2022/11/12 05:12:24;;;;;;;24.55;15.48;;;;;;;6.12;100.00;103067.34;2606872;36;20054;-54
2022/11/12 05:14:52;;;;;;;22.20;14.52;;;;;;;6.00;100.00;103065.97;2606823;31;20062;-55
2022/11/12 05:17:20;;;;;;;23.73;13.70;;;;;;;5.90;100.00;103067.19;2607426;31;20061;-53
2022/11/12 05:19:48;;;;;;;23.35;14.18;;;;;;;5.94;100.00;103060.81;2607902;36;20042;-54
2022/11/12 05:22:17;;;;;;;24.40;14.07;;;;;;;5.90;100.00;103046.69;2606389;36;20035;-54
2022/11/12 05:24:48;;;;;;;20.75;12.80;;;;;;;5.81;100.00;103048.78;2604712;36;20062;-54
2022/11/12 05:27:18;;;;;;;28.08;15.10;;;;;;;5.80;100.00;103045.25;2607485;36;20022;-56
2022/11/12 05:29:46;;;;;;;21.23;12.82;;;;;;;5.87;100.00;103040.56;2606854;36;20041;-52
2022/11/12 05:32:17;;;;;;;21.98;13.57;;;;;;;5.77;100.00;103034.63;2607942;36;20050;-51
2022/11/12 05:34:45;;;;;;;20.50;12.88;;;;;;;5.71;100.00;103040.19;2609406;36;20070;-55
2022/11/12 05:37:17;;;;;;;19.83;12.30;;;;;;;5.74;100.00;103032.06;2606801;47;20057;-51
2022/11/12 05:39:48;;;;;;;20.92;12.95;;;;;;;5.69;100.00;103037.56;2607210;36;20061;-56
2022/11/12 05:42:16;;;;;;;19.92;12.95;;;;;;;5.73;100.00;103033.03;2606000;31;20054;-54
2022/11/12 05:44:45;;;;;;;24.17;14.00;;;;;;;5.61;100.00;103035.16;2607143;31;20432;-56
2022/11/12 05:47:13;;;;;;;19.42;12.93;;;;;;;5.65;100.00;103027.91;2606349;36;20034;-56
2022/11/12 05:49:41;;;;;;;18.17;11.82;;;;;;;5.64;100.00;103039.53;2607521;36;20034;-55
2022/11/12 05:52:09;;;;;;;20.20;12.63;;;;;;;5.55;100.00;103043.38;2608909;36;21955;-50
2022/11/12 05:54:38;;;;;;;21.83;12.73;;;;;;;5.53;100.00;103036.34;2606789;36;20432;-54
2022/11/12 05:57:08;;;;;;;20.98;11.77;;;;;;;5.50;100.00;103037.28;2605951;36;20038;-53
2022/11/12 05:59:37;;;;;;;20.63;12.95;;;;;;;5.41;100.00;103032.25;2607470;36;20022;-57
2022/11/12 06:02:05;;;;;;;19.25;12.57;;;;;;;5.45;100.00;103033.91;2607032;36;20031;-56
2022/11/12 06:04:33;;;;;;;19.80;12.73;;;;;;;5.42;100.00;103028.69;2608706;36;20336;-53
2022/11/12 06:07:02;;;;;;;21.83;13.23;;;;;;;5.36;100.00;103037.75;2607845;36;20472;-50
2022/11/12 06:09:31;;;;;;;20.98;13.52;;;;;;;5.42;100.00;103044.69;2608323;36;20022;-53
2022/11/12 06:11:59;;;;;;;20.35;12.68;;;;;;;5.32;100.00;103045.91;2606123;36;20543;-54
2022/11/12 06:14:30;;;;;;;20.17;13.25;;;;;;;5.28;100.00;103046.91;2606343;36;20030;-51
2022/11/12 06:16:58;;;;;;;20.33;12.55;;;;;;;5.28;100.00;103045.13;2608146;36;20050;-57
2022/11/12 06:19:26;;;;;;;21.58;12.82;;;;;;;5.25;100.00;103039.88;2608465;36;20621;-51
2022/11/12 06:21:55;;;;;;;23.65;13.95;;;;;;;5.21;100.00;103051.56;2606957;36;20077;-52
2022/11/12 06:24:23;;;;;;;22.35;13.50;;;;;;;5.19;100.00;103040.94;2606474;36;20034;-52
2022/11/12 06:26:51;;;;;;;21.73;13.27;;;;;;;5.14;100.00;103045.56;2608056;36;20039;-54
2022/11/12 06:29:20;;;;;;;22.98;14.32;;;;;;;5.10;100.00;103049.22;2611819;31;20078;-59
2022/11/12 06:31:50;;;;;;;25.55;14.43;;;;;;;5.09;100.00;103058.16;2609467;36;20069;-53
2022/11/12 06:34:19;;;;;;;23.00;13.35;;;;;;;5.08;100.00;103062.63;2610582;31;20058;-51
2022/11/12 06:36:47;;;;;;;20.40;13.30;;;;;;;5.16;100.00;103051.72;2609730;36;20073;-53
2022/11/12 06:39:16;;;;;;;21.83;13.50;;;;;;;5.12;100.00;103065.19;2611328;31;20432;-50
2022/11/12 06:41:44;;;;;;;21.33;13.52;;;;;;;5.09;100.00;103060.81;2611125;36;20832;-54
2022/11/12 06:44:13;;;;;;;22.67;14.20;;;;;;;5.15;100.00;103060.63;2611213;36;20027;-51
2022/11/12 06:46:41;;;;;;;26.42;14.40;;;;;;;5.07;100.00;103063.53;2610418;36;20035;-54
2022/11/12 06:49:12;;;;;;;22.52;14.35;;;;;;;5.02;100.00;103064.59;2609286;36;20041;-57
2022/11/12 06:51:41;;;;;;;19.92;13.13;;;;;;;5.01;100.00;103065.53;2611797;36;20112;-58
2022/11/12 06:54:09;;;;;;;23.58;13.55;;;;;;;5.05;100.00;103069.84;2610935;36;20046;-54
2022/11/12 06:56:38;;;;;;;21.25;12.52;;;;;;;4.98;100.00;103077.16;2610625;36;20030;-52
2022/11/12 06:59:06;;;;;;;21.23;12.75;;;;;;;4.96;100.00;103084.34;2612682;31;20556;-58
2022/11/12 07:01:34;;;;;;;24.58;13.90;;;;;;;4.94;100.00;103074.63;2612475;36;20042;-51
2022/11/12 07:04:03;;;;;;;25.80;14.98;;;;;;;4.93;100.00;103078.22;2611155;31;20030;-54
2022/11/12 07:06:35;;;;;;;21.67;13.07;;;;;;;4.90;100.00;103080.06;2611537;36;20536;-54
2022/11/12 07:09:04;;;;;;;22.10;13.02;;;;;;;4.84;100.00;103082.88;2610253;36;20583;-49
2022/11/12 07:11:33;;;;;;;20.10;12.02;;;;;;;4.95;100.00;103089.72;2608397;36;20046;-52
2022/11/12 07:14:01;;;;;;;24.08;12.70;;;;;;;4.96;100.00;103083.47;2609853;36;20242;-55
2022/11/12 07:16:29;;;;;;;19.35;12.38;;;;;;;4.96;100.00;103091.47;2611037;31;20038;-53
2022/11/12 07:18:58;;;;;;;24.77;13.77;;;;;;;4.99;100.00;103091.38;2610741;36;20054;-51
2022/11/12 07:21:26;;;;;;;21.27;12.80;;;;;;;4.98;100.00;103092.31;2610489;36;20045;-58
2022/11/12 07:23:57;;;;;;;21.02;12.32;;;;;;;4.90;100.00;103098.75;2609932;36;20030;-56
2022/11/12 07:26:27;;;;;;;20.55;12.80;;;;;;;4.95;100.00;103092.38;2610468;31;20042;-54
2022/11/12 07:28:56;;;;;;;22.67;13.63;;;;;;;5.04;100.00;103094.81;2610822;36;20036;-53
2022/11/12 07:31:25;;;;;;;24.30;14.68;;;;;;;5.03;100.00;103090.38;2610607;36;20031;-58
2022/11/12 07:33:53;;;;;;;31.30;17.00;;;;;;;5.07;100.00;103102.72;2611533;36;20031;-49
2022/11/12 07:36:23;;;;;;;23.55;14.35;;;;;;;5.04;100.00;103102.81;2611861;31;20391;-51
2022/11/12 07:38:53;;;;;;;21.10;13.52;;;;;;;5.05;100.00;103096.53;2610171;36;20038;-58
2022/11/12 07:41:26;;;;;;;23.58;13.73;;;;;;;5.08;100.00;103107.16;2609876;36;20041;-54
2022/11/12 07:43:55;;;;;;;23.00;13.38;;;;;;;5.17;100.00;103109.53;2612899;31;20034;-50
2022/11/12 07:46:24;;;;;;;;;;;;;;;5.20;100.00;103112.09;2614740;36;20634;-58
2022/11/12 07:48:53;;;;;;;22.40;13.50;;;;;;;5.18;100.00;103111.28;2616488;36;19939;-55
2022/11/12 07:51:24;;;;;;;23.38;14.05;;;;;;;5.21;100.00;103116.53;2615062;36;20026;-55
2022/11/12 07:53:54;;;;;;;19.75;12.70;;;;;;;5.23;100.00;103119.16;2615223;36;20034;-49
2022/11/12 07:56:26;;;;;;;26.75;14.13;;;;;;;5.21;100.00;103116.53;2615710;31;20544;-53
2022/11/12 07:58:55;;;;;;;20.80;13.13;;;;;;;5.24;100.00;103111.09;2616879;36;20018;-57
2022/11/12 08:01:27;;;;;;;24.42;13.43;;;;;;;5.32;100.00;103102.84;2615847;36;20031;-51
2022/11/12 08:03:55;;;;;;;20.27;13.40;;;;;;;5.40;100.00;103106.19;2615963;36;20042;-50
2022/11/12 08:06:23;;;;;;;20.40;13.20;;;;;;;5.50;100.00;103111.22;2616576;31;20030;-55
2022/11/12 08:08:53;;;;;;;20.45;13.38;;;;;;;5.54;100.00;103111.06;2614759;36;20034;-53
2022/11/12 08:11:22;;;;;;;21.10;13.30;;;;;;;5.61;100.00;103115.31;2612449;36;20038;-50
2022/11/12 08:13:53;;;;;;;20.45;13.23;;;;;;;5.57;100.00;103116.31;2607024;36;20423;-54
2022/11/12 08:16:22;;;;;;;19.48;12.98;;;;;;;5.61;100.00;103115.31;2614880;31;20034;-52
2022/11/12 08:18:50;;;;;;;20.23;12.75;;;;;;;5.66;100.00;103116.97;2615976;36;20535;-53
2022/11/12 08:21:19;;;;;;;25.40;14.25;;;;;;;5.68;100.00;103128.47;2613295;36;20053;-59
2022/11/12 08:23:47;;;;;;;;;;;;;;;5.76;100.00;103123.75;2615209;36;20519;-55
2022/11/12 08:26:19;;;;;;;21.40;13.20;;;;;;;5.80;100.00;103122.75;2613650;36;19962;-54
2022/11/12 08:28:48;;;;;;;21.25;13.50;;;;;;;5.84;100.00;103127.03;2616753;36;20023;-55
2022/11/12 08:31:21;;;;;;;23.65;14.35;;;;;;;5.88;100.00;103122.50;2612787;36;20038;-52
2022/11/12 08:33:49;;;;;;;23.55;13.43;;;;;;;5.94;100.00;103116.94;2615795;36;20130;-59
2022/11/12 08:36:19;;;;;;;21.80;14.02;;;;;;;5.97;100.00;103114.19;2615889;36;20034;-52
2022/11/12 08:38:47;;;;;;;22.88;14.20;;;;;;;6.04;100.00;103117.56;2615064;36;20023;-49
2022/11/12 08:41:16;;;;;;;25.02;15.18;;;;;;;6.13;100.00;103117.25;2616638;36;20045;-51
2022/11/12 08:43:45;;;;;;;24.40;15.10;;;;;;;6.22;100.00;103116.06;2615826;36;20022;-58
2022/11/12 08:46:13;;;;;;;25.90;14.73;;;;;;;6.24;100.00;103128.47;2614385;36;20038;-54
2022/11/12 08:48:44;;;;;;;24.35;14.27;;;;;;;6.37;100.00;103128.03;2616023;36;20023;-52
2022/11/12 08:51:16;;;;;;;39.00;22.05;;;;;;;6.44;100.00;103127.75;2616092;54;20034;-56
2022/11/12 08:53:45;;;;;;;27.58;17.77;;;;;;;6.53;100.00;103125.69;2614561;36;20050;-51
2022/11/12 08:56:13;;;;;;;28.17;16.30;;;;;;;6.61;100.00;103120.94;2615155;36;20093;-53
2022/11/12 08:58:42;;;;;;;25.57;15.83;;;;;;;6.63;100.00;103125.31;2615233;36;20037;-53
2022/11/12 09:01:11;;;;;;;21.23;15.13;;;;;;;6.80;100.00;103123.81;2614198;36;20029;-57
2022/11/12 09:03:39;;;;;;;25.23;15.60;;;;;;;6.95;100.00;103133.09;2614737;36;20038;-49
2022/11/12 09:06:10;;;;;;;23.67;15.10;;;;;;;7.13;100.00;103124.38;2615979;36;20038;-51
2022/11/12 09:08:39;;;;;;;24.50;15.20;;;;;;;7.25;100.00;103124.88;2615805;36;20034;-57
2022/11/12 09:11:08;;;;;;;23.52;14.98;;;;;;;7.33;100.00;103123.63;2615190;36;20022;-56
2022/11/12 09:13:36;;;;;;;22.48;14.55;;;;;;;7.59;100.00;103129.78;2613724;36;20046;-55
2022/11/12 09:16:06;;;;;;;24.38;14.73;;;;;;;7.69;100.00;103130.28;2615021;31;20038;-55
2022/11/12 09:18:35;;;;;;;26.23;15.35;;;;;;;7.80;100.00;103129.84;2609929;36;20027;-53
2022/11/12 09:21:05;;;;;;;24.77;15.50;;;;;;;7.86;100.00;103126.91;2614600;36;20057;-51
2022/11/12 09:23:38;;;;;;;23.35;14.98;;;;;;;8.02;100.00;103121.78;2613833;31;20030;-54
2022/11/12 09:26:07;;;;;;;20.48;13.82;;;;;;;8.11;100.00;103123.22;2615300;36;20083;-51
2022/11/12 09:28:35;;;;;;;28.48;15.52;;;;;;;8.19;100.00;103118.41;2615768;36;20026;-53
2022/11/12 09:31:03;;;;;;;22.10;15.25;;;;;;;8.35;100.00;103118.66;2613368;36;20034;-55
2022/11/12 09:33:34;;;;;;;26.77;16.03;;;;;;;8.48;100.00;103114.53;2615594;36;20038;-54
2022/11/12 09:36:03;;;;;;;25.50;15.77;;;;;;;8.52;100.00;103118.78;2613940;36;20296;-56
2022/11/12 09:38:31;;;;;;;24.00;15.82;;;;;;;8.55;100.00;103118.69;2613894;36;20034;-54
2022/11/12 09:41:20;;;;;;;23.88;14.27;;;;;;;8.58;100.00;103123.03;2616785;31;20041;-53
2022/11/12 09:43:52;;;;;;;27.23;14.77;;;;;;;8.69;100.00;103118.06;2616225;36;20039;-49
2022/11/12 09:46:37;;;;;;;22.88;15.27;;;;;;;8.87;100.00;103110.97;2616291;36;20470;-49
2022/11/12 09:49:12;;;;;;;24.25;14.73;;;;;;;8.96;100.00;103123.13;2614788;36;20041;-52
2022/11/12 09:51:45;;;;;;;21.63;13.93;;;;;;;9.18;100.00;103131.06;2614448;31;20034;-50
2022/11/12 09:54:23;;;;;;;21.90;14.32;;;;;;;9.32;100.00;103119.69;2615836;31;20031;-52
2022/11/12 09:56:55;;;;;;;21.38;13.90;;;;;;;9.47;100.00;103128.84;2617219;36;20408;-49
2022/11/12 09:59:25;;;;;;;22.08;12.88;;;;;;;9.56;100.00;103127.53;2617349;31;20431;-51
2022/11/12 10:02:02;;;;;;;17.60;12.52;;;;;;;9.76;100.00;103129.22;2616135;36;20049;-55
2022/11/12 10:04:55;;;;;;;18.60;12.25;;;;;;;9.91;100.00;103124.91;2616843;36;20034;-54
2022/11/12 10:07:36;;;;;;;17.60;11.35;;;;;;;10.03;100.00;103126.16;2616075;36;20030;-54
2022/11/12 10:10:11;;;;;;;16.95;11.15;;;;;;;10.07;100.00;103120.53;2617006;36;20447;-55
2022/11/12 10:12:56;;;;;;;17.70;11.18;;;;;;;10.31;100.00;103122.94;2616453;36;20030;-60
2022/11/12 10:18:30;;;;;;;20.48;13.20;;;;;;;10.67;100.00;103124.69;2616817;36;20070;-54
2022/11/12 10:21:04;;;;;;;19.23;12.32;;;;;;;10.79;100.00;103115.97;2617570;31;20041;-53
2022/11/12 10:23:42;;;;;;;16.70;11.32;;;;;;;11.00;100.00;103105.84;2616653;31;20029;-56
2022/11/12 10:26:15;;;;;;;14.85;10.20;;;;;;;11.10;100.00;103113.41;2616836;36;20555;-55
2022/11/12 10:28:49;;;;;;;10.00;7.40;;;;;;;11.36;100.00;103107.44;2616871;36;20029;-54
2022/11/12 10:31:21;;;;;;;13.23;8.73;;;;;;;11.42;100.00;103100.84;2616605;36;20423;-53
2022/11/12 10:33:49;;;;;;;10.70;8.07;;;;;;;11.34;100.00;103103.13;2615826;36;20388;-57
2022/11/12 10:36:28;;;;;;;10.55;7.47;;;;;;;11.45;100.00;103106.06;2616632;36;20083;-54
2022/11/12 10:38:56;;;;;;;12.15;7.28;;;;;;;11.48;100.00;103100.47;2616400;36;20023;-54
2022/11/12 10:41:29;;;;;;;12.63;7.70;;;;;;;11.73;100.00;103104.47;2617316;36;20114;-56
2022/11/12 10:44:02;;;;;;;9.35;6.65;;;;;;;11.84;100.00;103098.47;2616050;36;20041;-55
2022/11/12 10:46:33;;;;;;;13.85;7.50;;;;;;;11.92;100.00;103098.88;2613449;36;20045;-54
2022/11/12 10:49:04;;;;;;;8.98;7.25;;;;;;;12.08;100.00;103098.88;2615278;36;20037;-55
2022/11/12 10:51:34;;;;;;;9.68;7.25;;;;;;;12.19;100.00;103090.16;2615736;36;20133;-55
2022/11/12 10:54:22;;;;;;;9.85;7.15;;;;;;;12.20;100.00;103087.34;2614604;36;20030;-54
2022/11/12 10:56:50;;;;;;;10.38;6.57;;;;;;;12.24;100.00;103094.31;2605133;36;20555;-56
2022/11/12 10:59:22;;;;;;;8.23;6.57;;;;;;;12.42;100.00;103081.50;2612888;36;20035;-54
2022/11/12 11:01:57;;;;;;;11.60;7.10;;;;;;;12.53;100.00;103082.69;2614719;36;20030;-54
2022/11/12 11:04:35;;;;;;;10.77;6.25;;;;;;;12.55;100.00;103078.94;2615517;31;20045;-54
2022/11/12 11:07:07;;;;;;;10.00;6.72;;;;;;;12.79;100.00;103071.16;2616016;36;20030;-56
2022/11/12 11:09:36;;;;;;;10.27;7.18;;;;;;;13.00;100.00;103062.66;2616196;36;20030;-57
2022/11/12 11:12:04;;;;;;;11.98;6.45;;;;;;;13.15;100.00;103068.91;2615006;36;20468;-53
2022/11/12 11:14:38;;;;;;;9.25;6.75;;;;;;;13.00;100.00;103059.97;2616836;36;20029;-56
2022/11/12 11:17:09;;;;;;;11.50;6.70;;;;;;;13.02;100.00;103063.41;2615372;36;20128;-50
2022/11/12 11:19:41;;;;;;;7.80;5.60;;;;;;;13.16;100.00;103059.81;2615834;36;20043;-55
2022/11/12 11:22:40;;;;;;;9.18;6.07;;;;;;;13.47;100.00;103065.97;2616441;36;20581;-55
2022/11/12 11:25:20;;;;;;;10.90;7.88;;;;;;;13.45;100.00;103059.78;2615040;36;20038;-56
2022/11/12 11:28:06;;;;;;;11.77;7.90;;;;;;;13.58;100.00;103063.41;2617363;31;20036;-59
2022/11/12 11:30:43;;;;;;;8.95;6.05;;;;;;;13.77;100.00;103049.53;2614498;36;20034;-56
2022/11/12 11:33:25;;;;;;;10.05;7.38;;;;;;;13.74;100.00;103060.56;2615960;36;20033;-55
2022/11/12 11:36:08;;;;;;;9.43;6.78;;;;;;;13.74;100.00;103055.16;2616940;36;20031;-56
2022/11/12 11:38:50;;;;;;;8.15;5.95;;;;;;;13.94;100.00;103056.53;2612402;36;20034;-56
2022/11/12 11:41:31;;;;;;;9.63;6.40;;;;;;;13.94;100.00;103051.09;2613940;36;20034;-60
2022/11/12 11:44:08;;;;;;;18.73;7.90;;;;;;;14.07;100.00;103045.69;2615833;36;20037;-53